createdAt,value
2022-10-21T00:01:03.002Z,1.52
2022-10-21T00:03:29.432Z,1.56
2022-10-21T00:05:55.844Z,1.51
2022-10-21T00:08:22.453Z,1.49
2022-10-21T00:10:52.549Z,1.48
2022-10-21T00:13:19.142Z,1.43
2022-10-21T00:15:45.520Z,1.41
2022-10-21T00:18:11.914Z,1.39
2022-10-21T00:20:40.948Z,1.36
2022-10-21T00:23:07.481Z,1.35
2022-10-21T00:25:33.844Z,1.35
2022-10-21T00:28:00.210Z,1.30
2022-10-21T00:30:26.661Z,1.28
2022-10-21T00:32:53.037Z,1.28
2022-10-21T00:35:19.409Z,1.22
2022-10-21T00:37:45.785Z,1.23
2022-10-21T00:40:12.224Z,1.20
2022-10-21T00:42:42.341Z,1.14
2022-10-21T00:45:16.777Z,1.12
2022-10-21T00:50:38.721Z,1.07
2022-10-21T00:53:10.772Z,1.06
2022-10-21T00:55:39.676Z,1.02
2022-10-21T00:58:06.974Z,1.06
2022-10-21T01:00:33.348Z,1.07
2022-10-21T01:03:00.064Z,1.11
2022-10-21T01:05:26.865Z,1.10
2022-10-21T01:07:53.447Z,1.10
2022-10-21T01:10:19.889Z,1.08
2022-10-21T01:12:55.482Z,1.07
2022-10-21T01:15:25.886Z,1.02
2022-10-21T01:18:09.248Z,1.01
2022-10-21T01:20:47.146Z,1.02
2022-10-21T01:23:32.329Z,1.01
2022-10-21T01:26:14.188Z,0.96
2022-10-21T01:28:59.104Z,0.93
2022-10-21T01:31:34.538Z,0.94
2022-10-21T01:34:09.812Z,0.94
2022-10-21T01:36:42.165Z,0.98
2022-10-21T01:39:20.500Z,1.00
2022-10-21T01:42:16.356Z,0.99
2022-10-21T01:44:53.209Z,0.92
2022-10-21T01:47:22.807Z,0.93
2022-10-21T01:49:52.966Z,0.96
2022-10-21T01:52:19.800Z,0.94
2022-10-21T01:54:50.061Z,0.88
2022-10-21T01:57:19.171Z,0.82
2022-10-21T01:59:46.491Z,0.81
2022-10-21T02:02:13.281Z,0.83
2022-10-21T02:04:41.859Z,0.76
2022-10-21T02:07:08.662Z,0.78
2022-10-21T02:09:35.070Z,0.80
2022-10-21T02:12:03.057Z,0.82
2022-10-21T02:14:32.298Z,0.84
2022-10-21T02:16:59.390Z,0.80
2022-10-21T02:19:26.008Z,0.79
2022-10-21T02:21:54.031Z,0.71
2022-10-21T02:24:37.109Z,0.71
2022-10-21T02:27:03.646Z,0.70
2022-10-21T02:29:33.600Z,0.69
2022-10-21T02:32:08.926Z,0.69
2022-10-21T02:34:42.150Z,0.68
2022-10-21T02:37:27.324Z,0.69
2022-10-21T02:40:00.260Z,0.69
2022-10-21T02:42:28.801Z,0.67
2022-10-21T02:44:55.169Z,0.66
2022-10-21T02:47:23.605Z,0.64
2022-10-21T02:49:50.000Z,0.58
2022-10-21T02:52:16.366Z,0.57
2022-10-21T02:54:42.777Z,0.54
2022-10-21T02:57:09.265Z,0.48
2022-10-21T02:59:35.659Z,0.46
2022-10-21T03:02:02.091Z,0.40
2022-10-21T03:04:28.470Z,0.37
2022-10-21T03:06:54.918Z,0.36
2022-10-21T03:09:21.406Z,0.32
2022-10-21T03:11:47.779Z,0.31
2022-10-21T03:14:14.191Z,0.31
2022-10-21T03:16:40.568Z,0.32
2022-10-21T03:19:07.132Z,0.34
2022-10-21T03:21:33.845Z,0.30
2022-10-21T03:24:00.213Z,0.29
2022-10-21T03:26:26.621Z,0.23
2022-10-21T03:28:53.009Z,0.26
2022-10-21T03:31:19.452Z,0.27
2022-10-21T03:33:45.830Z,0.27
2022-10-21T03:36:12.208Z,0.26
2022-10-21T03:38:38.575Z,0.21
2022-10-21T03:41:05.057Z,0.17
2022-10-21T03:43:31.438Z,0.20
2022-10-21T03:45:57.796Z,0.18
2022-10-21T03:48:24.191Z,0.16
2022-10-21T03:50:50.634Z,0.22
2022-10-21T03:53:30.896Z,0.19
2022-10-21T03:56:03.459Z,0.18
2022-10-21T03:58:29.975Z,0.15
2022-10-21T04:00:56.368Z,0.18
2022-10-21T04:03:22.747Z,0.15
2022-10-21T04:05:49.105Z,0.10
2022-10-21T04:08:15.475Z,0.06
2022-10-21T04:10:41.974Z,0.05
2022-10-21T04:13:08.414Z,0.00
2022-10-21T04:15:34.824Z,-0.05
2022-10-21T04:18:01.203Z,-0.07
2022-10-21T04:20:27.678Z,-0.07
2022-10-21T04:22:54.130Z,-0.11
2022-10-21T04:25:20.490Z,-0.10
2022-10-21T04:27:46.873Z,-0.13
2022-10-21T04:30:13.306Z,-0.15
2022-10-21T04:32:39.978Z,-0.16
2022-10-21T04:35:06.874Z,-0.17
2022-10-21T04:37:33.282Z,-0.23
2022-10-21T04:39:59.653Z,-0.32
2022-10-21T04:42:26.026Z,-0.33
2022-10-21T04:44:52.411Z,-0.32
2022-10-21T04:47:18.803Z,-0.28
2022-10-21T04:49:45.188Z,-0.28
2022-10-21T04:52:11.565Z,-0.24
2022-10-21T04:54:37.923Z,-0.23
2022-10-21T04:57:04.363Z,-0.21
2022-10-21T04:59:30.799Z,-0.18
2022-10-21T05:01:57.196Z,-0.13
2022-10-21T05:04:23.610Z,-0.16
2022-10-21T05:06:50.025Z,-0.19
2022-10-21T05:09:16.580Z,-0.25
2022-10-21T05:11:43.025Z,-0.27
2022-10-21T05:14:09.392Z,-0.27
2022-10-21T05:16:35.829Z,-0.28
2022-10-21T05:19:02.232Z,-0.28
2022-10-21T05:21:28.650Z,-0.29
2022-10-21T05:23:55.143Z,-0.31
2022-10-21T05:26:21.552Z,-0.32
2022-10-21T05:28:47.937Z,-0.35
2022-10-21T05:31:14.285Z,-0.34
2022-10-21T05:33:40.647Z,-0.33
2022-10-21T05:36:08.640Z,-0.28
2022-10-21T05:38:35.403Z,-0.25
2022-10-21T05:41:01.901Z,-0.23
2022-10-21T05:43:28.339Z,-0.16
2022-10-21T05:45:54.802Z,-0.14
2022-10-21T05:48:21.251Z,-0.15
2022-10-21T05:50:48.021Z,-0.18
2022-10-21T05:53:14.693Z,-0.22
2022-10-21T05:55:41.054Z,-0.23
2022-10-21T05:58:07.806Z,-0.21
2022-10-21T06:00:34.266Z,-0.17
2022-10-21T06:03:00.656Z,-0.16
2022-10-21T06:05:27.194Z,-0.13
2022-10-21T06:07:53.626Z,-0.11
2022-10-21T06:10:20.037Z,-0.10
2022-10-21T06:12:46.395Z,-0.10
2022-10-21T06:15:12.835Z,-0.07
2022-10-21T06:17:43.178Z,-0.04
2022-10-21T06:20:09.689Z,-0.07
2022-10-21T06:22:36.092Z,-0.03
2022-10-21T06:25:02.554Z,0.03
2022-10-21T06:27:29.022Z,0.06
2022-10-21T06:29:55.399Z,0.05
2022-10-21T06:32:21.790Z,0.03
2022-10-21T06:34:48.190Z,0.04
2022-10-21T06:37:14.566Z,0.09
2022-10-21T06:39:40.969Z,0.16
2022-10-21T06:42:07.344Z,0.20
2022-10-21T06:44:33.744Z,0.23
2022-10-21T06:47:00.180Z,0.28
2022-10-21T06:49:26.599Z,0.35
2022-10-21T06:51:52.990Z,0.45
2022-10-21T06:54:19.358Z,0.50
2022-10-21T06:56:45.771Z,0.55
2022-10-21T06:59:12.276Z,0.62
2022-10-21T07:01:59.117Z,0.67
2022-10-21T07:04:25.244Z,0.78
2022-10-21T07:06:51.698Z,0.90
2022-10-21T07:09:18.081Z,0.96
2022-10-21T07:11:44.693Z,1.00
2022-10-21T07:14:12.551Z,1.08
2022-10-21T07:16:38.998Z,1.11
2022-10-21T07:19:05.950Z,1.15
2022-10-21T07:21:32.653Z,1.21
2022-10-21T07:23:59.920Z,1.26
2022-10-21T07:26:28.226Z,1.31
2022-10-21T07:28:55.285Z,1.36
2022-10-21T07:31:21.893Z,1.41
2022-10-21T07:33:48.510Z,1.48
2022-10-21T07:36:22.603Z,1.57
2022-10-21T07:38:49.582Z,1.64
2022-10-21T07:41:20.687Z,1.70
2022-10-21T07:43:47.307Z,1.81
2022-10-21T07:46:13.840Z,1.98
2022-10-21T07:48:40.224Z,2.12
2022-10-21T07:51:08.114Z,2.28
2022-10-21T07:53:34.606Z,2.48
2022-10-21T07:56:05.912Z,2.68
2022-10-21T07:58:32.791Z,2.81
2022-10-21T08:01:00.390Z,3.06
2022-10-21T08:03:27.492Z,3.27
2022-10-21T08:05:54.057Z,3.40
2022-10-21T08:08:23.691Z,3.49
2022-10-21T08:10:51.505Z,3.56
2022-10-21T08:13:18.427Z,3.60
2022-10-21T08:15:46.349Z,3.65
2022-10-21T08:18:12.870Z,3.71
2022-10-21T08:20:43.901Z,3.78
2022-10-21T08:23:14.666Z,3.83
2022-10-21T08:25:46.555Z,3.88
2022-10-21T08:28:12.917Z,3.92
2022-10-21T08:30:39.282Z,3.93
2022-10-21T08:33:05.656Z,3.95
2022-10-21T08:35:32.083Z,3.99
2022-10-21T08:37:58.511Z,4.03
2022-10-21T08:40:25.431Z,4.11
2022-10-21T08:42:52.369Z,4.18
2022-10-21T08:45:24.808Z,4.26
2022-10-21T08:47:55.116Z,4.35
2022-10-21T08:50:25.918Z,4.48
2022-10-21T08:52:55.790Z,4.59
2022-10-21T08:55:24.146Z,4.65
2022-10-21T08:57:53.591Z,4.79
2022-10-21T09:00:32.675Z,4.90
2022-10-21T09:03:01.853Z,5.03
2022-10-21T09:05:31.739Z,5.13
2022-10-21T09:08:11.465Z,5.22
2022-10-21T09:10:51.317Z,5.30
2022-10-21T09:13:34.980Z,5.42
2022-10-21T09:16:13.535Z,5.51
2022-10-21T09:18:51.590Z,5.63
2022-10-21T09:21:32.894Z,5.77
2022-10-21T09:24:06.513Z,5.86
2022-10-21T09:26:46.923Z,5.92
2022-10-21T09:29:33.336Z,6.03
2022-10-21T09:32:02.871Z,6.19
2022-10-21T09:34:37.547Z,6.32
2022-10-21T09:37:05.520Z,6.46
2022-10-21T09:39:42.693Z,6.59
2022-10-21T09:42:29.165Z,6.72
2022-10-21T09:44:58.579Z,6.91
2022-10-21T09:47:25.137Z,7.07
2022-10-21T09:50:12.520Z,7.18
2022-10-21T09:52:39.366Z,7.31
2022-10-21T09:55:06.365Z,7.38
2022-10-21T09:57:48.468Z,7.50
2022-10-21T10:00:14.949Z,7.64
2022-10-21T10:02:46.115Z,7.79
2022-10-21T10:05:31.190Z,7.94
2022-10-21T10:07:57.581Z,8.05
2022-10-21T10:10:31.577Z,8.15
2022-10-21T10:12:58.703Z,8.26
2022-10-21T10:15:32.815Z,8.34
2022-10-21T10:17:59.815Z,8.41
2022-10-21T10:20:26.608Z,8.52
2022-10-21T10:22:58.808Z,8.56
2022-10-21T10:25:28.614Z,8.63
2022-10-21T10:27:56.559Z,8.66
2022-10-21T10:30:24.497Z,8.73
2022-10-21T10:32:52.289Z,8.79
2022-10-21T10:35:28.198Z,8.87
2022-10-21T10:37:54.813Z,8.94
2022-10-21T10:40:23.937Z,9.00
2022-10-21T10:42:51.757Z,9.10
2022-10-21T10:45:22.158Z,9.21
2022-10-21T10:47:52.247Z,9.35
2022-10-21T10:50:37.047Z,9.43
2022-10-21T10:53:21.226Z,9.52
2022-10-21T10:55:51.596Z,9.60
2022-10-21T10:58:20.328Z,9.66
2022-10-21T11:00:51.679Z,9.72
2022-10-21T11:03:26.195Z,9.80
2022-10-21T11:05:53.741Z,9.87
2022-10-21T11:08:34.208Z,9.94
2022-10-21T11:11:03.065Z,10.05
2022-10-21T11:13:29.673Z,10.14
2022-10-21T11:16:01.232Z,10.21
2022-10-21T11:18:53.961Z,10.26
2022-10-21T11:21:39.095Z,10.40
2022-10-21T11:24:11.928Z,10.41
2022-10-21T11:26:57.032Z,10.48
2022-10-21T11:29:33.267Z,10.54
2022-10-21T11:32:12.855Z,10.62
2022-10-21T11:34:57.915Z,10.68
2022-10-21T11:37:46.664Z,10.75
2022-10-21T11:40:18.223Z,10.81
2022-10-21T11:42:47.093Z,10.84
2022-10-21T11:45:32.354Z,10.85
2022-10-21T11:48:04.866Z,10.88
2022-10-21T11:50:40.470Z,10.90
2022-10-21T11:53:21.884Z,10.90
2022-10-21T11:56:08.812Z,10.89
2022-10-21T11:58:44.219Z,10.89
2022-10-21T12:01:16.628Z,10.89
2022-10-21T12:04:01.686Z,10.91
2022-10-21T12:06:43.534Z,10.92
2022-10-21T12:09:16.551Z,10.94
2022-10-21T12:11:46.200Z,10.95
2022-10-21T12:14:28.930Z,10.98
2022-10-21T12:16:59.126Z,11.02
2022-10-21T12:19:25.999Z,11.02
2022-10-21T12:21:52.747Z,11.04
2022-10-21T12:24:25.856Z,11.05
2022-10-21T12:26:52.383Z,11.03
2022-10-21T12:29:24.584Z,11.04
2022-10-21T12:31:53.986Z,11.02
2022-10-21T12:34:20.693Z,10.99
2022-10-21T12:36:50.936Z,10.95
2022-10-21T12:39:32.606Z,10.96
2022-10-21T12:42:05.510Z,11.00
2022-10-21T12:44:32.889Z,11.02
2022-10-21T12:47:03.389Z,10.99
2022-10-21T12:49:34.199Z,11.01
2022-10-21T12:52:04.224Z,10.99
2022-10-21T12:54:35.186Z,10.98
2022-10-21T12:57:06.572Z,11.01
2022-10-21T12:59:40.625Z,11.01
2022-10-21T13:02:07.924Z,10.95
2022-10-21T13:04:34.387Z,10.94
2022-10-21T13:07:03.750Z,10.96
2022-10-21T13:09:41.410Z,10.98
2022-10-21T13:12:10.866Z,10.97
2022-10-21T13:14:42.714Z,10.99
2022-10-21T13:17:14.857Z,11.00
2022-10-21T13:19:41.488Z,10.98
2022-10-21T13:22:31.130Z,10.95
2022-10-21T13:24:57.494Z,10.93
2022-10-21T13:27:23.910Z,10.90
2022-10-21T13:29:50.904Z,10.89
2022-10-21T13:32:17.920Z,10.92
2022-10-21T13:34:56.413Z,10.95
2022-10-21T13:37:37.634Z,10.94
2022-10-21T13:40:06.685Z,10.96
2022-10-21T13:42:39.687Z,10.98
2022-10-21T13:45:24.017Z,10.96
2022-10-21T13:48:00.742Z,10.94
2022-10-21T13:50:28.436Z,10.90
2022-10-21T13:52:55.161Z,10.86
2022-10-21T13:55:23.106Z,10.85
2022-10-21T13:57:50.791Z,10.87
2022-10-21T14:00:19.047Z,10.86
2022-10-21T14:02:49.804Z,10.89
2022-10-21T14:05:31.565Z,10.86
2022-10-21T14:07:58.045Z,10.86
2022-10-21T14:10:24.694Z,10.80
2022-10-21T14:12:51.428Z,10.75
2022-10-21T14:15:19.541Z,10.72
2022-10-21T14:17:50.913Z,10.67
2022-10-21T14:20:22.464Z,10.67
2022-10-21T14:22:49.858Z,10.63
2022-10-21T14:25:18.211Z,10.61
2022-10-21T14:27:47.055Z,10.63
2022-10-21T14:30:18.573Z,10.62
2022-10-21T14:32:46.282Z,10.62
2022-10-21T14:35:12.688Z,10.60
2022-10-21T14:37:49.558Z,10.58
2022-10-21T14:40:18.906Z,10.50
2022-10-21T14:42:48.657Z,10.50
2022-10-21T14:45:23.448Z,10.49
2022-10-21T14:47:50.854Z,10.49
2022-10-21T14:50:19.623Z,10.51
2022-10-21T14:52:47.393Z,10.46
2022-10-21T14:55:14.919Z,10.40
2022-10-21T14:57:44.496Z,10.37
2022-10-21T15:00:28.939Z,10.34
2022-10-21T15:02:57.288Z,10.32
2022-10-21T15:05:28.784Z,10.33
2022-10-21T15:08:14.324Z,10.34
2022-10-21T15:10:40.904Z,10.33
2022-10-21T15:13:17.510Z,10.33
2022-10-21T15:15:48.214Z,10.29
2022-10-21T15:18:24.916Z,10.21
2022-10-21T15:20:53.761Z,10.19
2022-10-21T15:23:22.402Z,10.16
2022-10-21T15:25:51.772Z,10.13
2022-10-21T15:28:19.354Z,10.13
2022-10-21T15:30:46.101Z,10.12
2022-10-21T15:33:12.878Z,10.09
2022-10-21T15:35:39.266Z,9.98
2022-10-21T15:38:05.648Z,9.88
2022-10-21T15:40:33.098Z,9.84
2022-10-21T15:42:59.480Z,9.82
2022-10-21T15:45:25.893Z,9.80
2022-10-21T15:47:53.675Z,9.77
2022-10-21T15:50:23.935Z,9.73
2022-10-21T15:52:50.520Z,9.69
2022-10-21T15:55:16.955Z,9.69
2022-10-21T15:57:44.590Z,9.67
2022-10-21T16:00:29.142Z,9.68
2022-10-21T16:02:55.572Z,9.65
2022-10-21T16:05:22.075Z,9.58
2022-10-21T16:07:48.769Z,9.62
2022-10-21T16:10:18.199Z,9.61
2022-10-21T16:12:44.790Z,9.62
2022-10-21T16:15:11.377Z,9.62
2022-10-21T16:17:37.816Z,9.60
2022-10-21T16:20:04.479Z,9.59
2022-10-21T16:22:31.113Z,9.58
2022-10-21T16:24:57.477Z,9.59
2022-10-21T16:27:43.345Z,9.63
2022-10-21T16:30:20.722Z,9.59
2022-10-21T16:32:47.536Z,9.59
2022-10-21T16:35:14.894Z,9.61
2022-10-21T16:37:41.442Z,9.59
2022-10-21T16:40:16.299Z,9.56
2022-10-21T16:42:42.900Z,9.54
2022-10-21T16:45:09.653Z,9.57
2022-10-21T16:47:36.809Z,9.58
2022-10-21T16:50:04.379Z,9.62
2022-10-21T16:52:32.160Z,9.65
2022-10-21T16:54:58.552Z,9.67
2022-10-21T16:57:24.935Z,9.67
2022-10-21T16:59:51.297Z,9.69
2022-10-21T17:02:19.406Z,9.69
2022-10-21T17:04:47.193Z,9.67
2022-10-21T17:07:13.843Z,9.66
2022-10-21T17:09:40.249Z,9.66
2022-10-21T17:12:07.623Z,9.64
2022-10-21T17:17:05.430Z,9.63
2022-10-21T17:19:31.903Z,9.60
2022-10-21T17:21:58.335Z,9.61
2022-10-21T17:24:25.801Z,9.60
2022-10-21T17:26:52.328Z,9.60
2022-10-21T17:29:18.687Z,9.58
2022-10-21T17:31:45.102Z,9.56
2022-10-21T17:34:21.339Z,9.51
2022-10-21T17:36:47.691Z,9.47
2022-10-21T17:39:14.073Z,9.46
2022-10-21T17:41:40.477Z,9.48
2022-10-21T17:44:06.946Z,9.45
2022-10-21T17:46:33.312Z,9.44
2022-10-21T17:48:59.670Z,9.42
2022-10-21T17:51:26.042Z,9.41
2022-10-21T17:53:53.578Z,9.41
2022-10-21T17:56:20.555Z,9.37
2022-10-21T17:58:50.786Z,9.30
2022-10-21T18:01:17.327Z,9.28
2022-10-21T18:03:44.264Z,9.24
2022-10-21T18:06:11.612Z,9.23
2022-10-21T18:08:38.025Z,9.19
2022-10-21T18:11:08.612Z,9.18
2022-10-21T18:13:35.028Z,9.19
2022-10-21T18:16:03.381Z,9.09
2022-10-21T18:18:30.286Z,9.07
2022-10-21T18:21:01.568Z,9.12
2022-10-21T18:23:28.118Z,9.15
2022-10-21T18:25:54.565Z,9.14
2022-10-21T18:28:20.987Z,9.11
2022-10-21T18:30:47.399Z,9.08
2022-10-21T18:33:13.771Z,9.03
2022-10-21T18:35:40.343Z,8.99
2022-10-21T18:38:06.721Z,8.98
2022-10-21T18:40:33.537Z,8.96
2022-10-21T18:43:00.123Z,8.92
2022-10-21T18:45:26.559Z,8.90
2022-10-21T18:47:54.436Z,8.82
2022-10-21T18:50:20.810Z,8.79
2022-10-21T18:52:47.385Z,8.80
2022-10-21T18:55:13.774Z,8.79
2022-10-21T18:57:40.305Z,8.76
2022-10-21T19:00:07.193Z,8.74
2022-10-21T19:02:33.628Z,8.73
2022-10-21T19:05:02.135Z,8.69
2022-10-21T19:07:29.113Z,8.55
2022-10-21T19:09:55.536Z,8.52
2022-10-21T19:12:23.529Z,8.53
2022-10-21T19:14:50.266Z,8.52
2022-10-21T19:17:16.728Z,8.51
2022-10-21T19:19:43.090Z,8.53
2022-10-21T19:22:09.529Z,8.51
2022-10-21T19:24:36.162Z,8.51
2022-10-21T19:27:02.558Z,8.45
2022-10-21T19:29:28.950Z,8.48
2022-10-21T19:31:56.773Z,8.48
2022-10-21T19:34:26.405Z,8.48
2022-10-21T19:36:52.914Z,8.49
2022-10-21T19:39:19.325Z,8.46
2022-10-21T19:41:45.757Z,8.49
2022-10-21T19:44:12.159Z,8.51
2022-10-21T19:46:39.298Z,8.49
2022-10-21T19:49:06.468Z,8.47
2022-10-21T19:51:32.840Z,8.48
2022-10-21T19:53:59.373Z,8.48
2022-10-21T19:56:29.697Z,8.46
2022-10-21T19:58:57.248Z,8.44
2022-10-21T20:01:25.556Z,8.44
2022-10-21T20:03:52.626Z,8.45
2022-10-21T20:06:23.884Z,8.45
2022-10-21T20:08:50.641Z,8.42
2022-10-21T20:11:18.519Z,8.43
2022-10-21T20:13:44.944Z,8.44
2022-10-21T20:16:18.299Z,8.45
2022-10-21T20:18:44.710Z,8.43
2022-10-21T20:21:12.095Z,8.41
2022-10-21T20:23:38.500Z,8.42
2022-10-21T20:26:05.150Z,8.41
2022-10-21T20:28:31.718Z,8.43
2022-10-21T20:30:59.874Z,8.44
2022-10-21T20:33:27.232Z,8.44
2022-10-21T20:35:53.690Z,8.42
2022-10-21T20:38:20.265Z,8.43
2022-10-21T20:41:13.283Z,8.43
2022-10-21T20:43:40.612Z,8.40
2022-10-21T20:46:11.515Z,8.40
2022-10-21T20:48:42.511Z,8.41
2022-10-21T20:51:10.301Z,8.40
2022-10-21T20:53:39.945Z,8.41
2022-10-21T20:56:07.382Z,8.43
2022-10-21T20:58:35.176Z,8.43
2022-10-21T21:01:17.933Z,8.42
2022-10-21T21:03:44.951Z,8.41
2022-10-21T21:06:12.503Z,8.41
2022-10-21T21:08:48.562Z,8.43
2022-10-21T21:11:26.138Z,8.43
2022-10-21T21:13:52.529Z,8.42
2022-10-21T21:16:22.239Z,8.42
2022-10-21T21:18:52.908Z,8.41
2022-10-21T21:21:19.856Z,8.42
2022-10-21T21:23:46.499Z,8.42
2022-10-21T21:26:15.693Z,8.39
2022-10-21T21:28:42.082Z,8.37
2022-10-21T21:31:09.502Z,8.35
2022-10-21T21:33:36.173Z,8.36
2022-10-21T21:36:04.768Z,8.35
2022-10-21T21:38:31.941Z,8.35
2022-10-21T21:40:58.844Z,8.35
2022-10-21T21:43:25.589Z,8.36
2022-10-21T21:45:52.007Z,8.35
2022-10-21T21:48:18.666Z,8.36
2022-10-21T21:50:45.530Z,8.37
2022-10-21T21:53:13.144Z,8.35
2022-10-21T21:55:39.919Z,8.34
2022-10-21T21:58:06.820Z,8.34
2022-10-21T22:00:33.619Z,8.36
2022-10-21T22:03:00.006Z,8.32
2022-10-21T22:05:27.227Z,8.34
2022-10-21T22:07:53.624Z,8.34
2022-10-21T22:10:20.039Z,8.33
2022-10-21T22:12:46.441Z,8.34
2022-10-21T22:15:19.784Z,8.33
2022-10-21T22:17:59.617Z,8.31
2022-10-21T22:20:26.011Z,8.31
2022-10-21T22:22:52.400Z,8.33
2022-10-21T22:25:18.841Z,8.33
2022-10-21T22:27:45.237Z,8.31
2022-10-21T22:30:16.596Z,8.31
2022-10-21T22:32:43.188Z,8.31
2022-10-21T22:35:09.976Z,8.27
2022-10-21T22:37:37.029Z,8.28
2022-10-21T22:40:03.798Z,8.30
2022-10-21T22:42:30.218Z,8.32
2022-10-21T22:44:56.583Z,8.34
2022-10-21T22:47:23.509Z,8.36
2022-10-21T22:49:50.632Z,8.37
2022-10-21T22:52:17.324Z,8.37
2022-10-21T22:54:49.675Z,8.38
2022-10-21T22:57:16.463Z,8.36
2022-10-21T22:59:44.159Z,8.34
2022-10-21T23:02:11.050Z,8.37
2022-10-21T23:04:37.450Z,8.36
2022-10-21T23:07:03.848Z,8.36
2022-10-21T23:09:30.240Z,8.36
2022-10-21T23:11:56.714Z,8.35
2022-10-21T23:14:23.161Z,8.35
2022-10-21T23:16:49.608Z,8.28
2022-10-21T23:19:16.008Z,8.27
2022-10-21T23:21:42.633Z,8.27
2022-10-21T23:24:09.046Z,8.29
2022-10-21T23:26:35.892Z,8.31
2022-10-21T23:29:02.299Z,8.34
2022-10-21T23:31:28.709Z,8.36
2022-10-21T23:33:55.118Z,8.36
2022-10-21T23:36:21.583Z,8.36
2022-10-21T23:38:47.980Z,8.35
2022-10-21T23:41:14.394Z,8.33
2022-10-21T23:43:40.948Z,8.31
2022-10-21T23:46:07.438Z,8.32
2022-10-21T23:48:33.985Z,8.32
2022-10-21T23:51:00.341Z,8.28
2022-10-21T23:53:26.724Z,8.26
2022-10-21T23:55:53.108Z,8.27
2022-10-21T23:58:19.558Z,8.27
